Time;durP1;ratioP1;P1;durP2;ratioP2;P2;SDS_P1;SDS_P2;PMS_P1;PMS_P2;Temp;Humidity;BMP_temperature;BMP_pressure;BME280_temperature;BME280_humidity;BME280_pressure;Samples;Min_cycle;Max_cycle;Signal;HPM_P1;HPM_P2
2021/11/20 00:01:11;;;;;;;19.02;8.10;;;;;;;;;;5000652;28;20018;-55
2021/11/20 00:03:39;;;;;;;23.92;10.43;;;;;;;;;;5002650;28;20042;-56
2021/11/20 00:06:06;;;;;;;21.38;9.88;;;;;;;;;;4997929;28;20036;-56
2021/11/20 00:08:31;;;;;;;24.10;11.20;;;;;;;;;;5000348;28;20112;-56
2021/11/20 00:11:00;;;;;;;25.33;11.82;;;;;;;;;;4999040;28;20037;-55
2021/11/20 00:13:27;;;;;;;23.40;10.52;;;;;;;;;;5004100;28;20061;-56
2021/11/20 00:15:59;;;;;;;20.63;9.93;;;;;;;;;;5000221;28;20040;-56
2021/11/20 00:18:25;;;;;;;14.88;6.57;;;;;;;;;;4999162;28;20511;-56
2021/11/20 00:20:55;;;;;;;16.65;7.15;;;;;;;;;;5004352;28;20034;-55
2021/11/20 00:23:28;;;;;;;17.80;7.15;;;;;;;;;;5002172;28;20052;-56
2021/11/20 00:25:56;;;;;;;21.13;9.60;;;;;;;;;;5001444;28;20038;-56
2021/11/20 00:31:13;;;;;;;40.45;18.60;;;;;;;;;;5003380;28;20072;-56
2021/11/20 00:33:39;;;;;;;17.20;7.50;;;;;;;;;;4999379;28;20417;-56
2021/11/20 00:36:07;;;;;;;35.67;15.23;;;;;;;;;;5001895;28;20023;-56
2021/11/20 00:38:33;;;;;;;31.35;13.13;;;;;;;;;;5002772;28;20041;-56
2021/11/20 00:41:22;;;;;;;37.33;14.23;;;;;;;;;;5005638;28;20507;-56
2021/11/20 00:43:49;;;;;;;42.58;15.05;;;;;;;;;;5000459;28;20033;-55
2021/11/20 00:46:18;;;;;;;48.90;17.35;;;;;;;;;;4997914;28;20487;-56
2021/11/20 00:48:46;;;;;;;39.50;15.18;;;;;;;;;;4998969;28;20074;-56
2021/11/20 00:51:13;;;;;;;20.00;8.30;;;;;;;;;;5001404;28;20025;-56
2021/11/20 00:53:39;;;;;;;20.17;8.85;;;;;;;;;;5001801;28;20141;-55
2021/11/20 00:56:07;;;;;;;15.88;6.85;;;;;;;;;;5001365;28;20152;-55
2021/11/20 00:58:33;;;;;;;13.30;6.03;;;;;;;;;;4998306;28;20022;-55
2021/11/20 01:01:01;;;;;;;13.65;6.43;;;;;;;;;;5000768;28;20113;-55
2021/11/20 01:03:28;;;;;;;14.27;7.10;;;;;;;;;;5003842;28;20027;-58
2021/11/20 01:05:54;;;;;;;18.17;7.70;;;;;;;;;;5002621;28;20034;-56
2021/11/20 01:08:24;;;;;;;16.60;8.93;;;;;;;;;;5002195;28;20541;-55
2021/11/20 01:10:54;;;;;;;17.73;9.23;;;;;;;;;;5003700;28;20520;-56
2021/11/20 01:13:19;;;;;;;20.98;9.63;;;;;;;;;;5004766;28;20034;-56
2021/11/20 01:15:50;;;;;;;22.88;9.35;;;;;;;;;;5002709;28;20041;-56
2021/11/20 01:18:17;;;;;;;22.88;9.93;;;;;;;;;;5004210;28;20030;-56
2021/11/20 01:20:43;;;;;;;26.45;11.15;;;;;;;;;;5004144;28;20045;-56
2021/11/20 01:23:09;;;;;;;29.35;12.52;;;;;;;;;;5005381;28;20026;-56
2021/11/20 01:25:36;;;;;;;29.92;12.30;;;;;;;;;;5005573;28;20237;-56
2021/11/20 01:28:03;;;;;;;34.20;13.02;;;;;;;;;;5003237;28;20025;-55
2021/11/20 01:30:28;;;;;;;32.78;13.52;;;;;;;;;;5001111;28;20034;-58
2021/11/20 01:32:54;;;;;;;31.23;13.15;;;;;;;;;;5004471;28;20030;-56
2021/11/20 01:35:20;;;;;;;33.50;13.60;;;;;;;;;;5006376;28;20026;-56
2021/11/20 01:37:45;;;;;;;32.55;13.30;;;;;;;;;;5006399;28;20033;-54
2021/11/20 01:40:15;;;;;;;34.88;15.18;;;;;;;;;;5005436;28;20049;-59
2021/11/20 01:42:42;;;;;;;32.83;13.60;;;;;;;;;;5005888;28;20026;-56
2021/11/20 01:45:11;;;;;;;31.63;12.65;;;;;;;;;;5005258;28;20530;-55
2021/11/20 01:47:36;;;;;;;36.67;13.50;;;;;;;;;;5003635;28;20128;-54
2021/11/20 01:50:16;;;;;;;36.25;14.02;;;;;;;;;;5003777;28;20399;-54
2021/11/20 01:52:53;;;;;;;34.15;13.30;;;;;;;;;;4997931;28;20030;-56
2021/11/20 01:55:28;;;;;;;33.28;13.65;;;;;;;;;;5005726;28;20018;-56
2021/11/20 01:58:04;;;;;;;35.90;13.88;;;;;;;;;;5004655;28;20037;-56
2021/11/20 02:00:40;;;;;;;34.97;13.95;;;;;;;;;;5006476;28;20026;-58
2021/11/20 02:03:18;;;;;;;32.92;13.35;;;;;;;;;;5005997;28;20034;-56
2021/11/20 02:05:53;;;;;;;38.53;13.77;;;;;;;;;;5002982;28;20029;-55
2021/11/20 02:08:24;;;;;;;33.85;12.63;;;;;;;;;;5003262;28;20026;-55
2021/11/20 02:10:57;;;;;;;30.08;12.18;;;;;;;;;;5004536;28;20041;-56
2021/11/20 02:13:26;;;;;;;36.00;13.93;;;;;;;;;;5006336;28;20048;-57
2021/11/20 02:15:56;;;;;;;;;;;;;;;;;;5002581;28;20037;-55
2021/11/20 02:18:25;;;;;;;33.10;12.93;;;;;;;;;;4999793;28;19920;-56
2021/11/20 02:21:15;;;;;;;35.72;13.57;;;;;;;;;;4998117;28;20042;-55
2021/11/20 02:23:40;;;;;;;;;;;;;;;;;;5006103;28;20087;-55
2021/11/20 02:26:05;;;;;;;32.80;11.65;;;;;;;;;;5000751;28;20383;-55
2021/11/20 02:28:32;;;;;;;35.40;12.70;;;;;;;;;;5004315;28;20049;-55
2021/11/20 02:30:59;;;;;;;33.45;12.70;;;;;;;;;;5002730;28;20053;-56
2021/11/20 02:33:31;;;;;;;34.33;13.80;;;;;;;;;;5006533;28;20076;-55
2021/11/20 02:36:00;;;;;;;38.58;14.30;;;;;;;;;;4998423;28;20139;-55
2021/11/20 02:38:32;;;;;;;35.83;13.73;;;;;;;;;;5003389;28;20192;-55
2021/11/20 02:40:59;;;;;;;37.15;13.73;;;;;;;;;;5004977;28;20103;-55
2021/11/20 02:43:26;;;;;;;40.28;13.85;;;;;;;;;;5008126;28;20032;-55
2021/11/20 02:45:55;;;;;;;37.03;13.85;;;;;;;;;;5005502;28;20504;-55
2021/11/20 02:48:22;;;;;;;41.60;15.67;;;;;;;;;;5000567;28;20026;-55
2021/11/20 02:51:02;;;;;;;31.90;13.68;;;;;;;;;;5006480;28;20101;-56
2021/11/20 02:53:31;;;;;;;34.95;14.00;;;;;;;;;;5008212;28;20021;-56
2021/11/20 02:55:57;;;;;;;36.58;14.18;;;;;;;;;;5001648;28;20508;-55
2021/11/20 02:58:24;;;;;;;43.45;14.70;;;;;;;;;;5004690;28;20058;-55
2021/11/20 03:00:55;;;;;;;44.08;14.75;;;;;;;;;;5000345;28;21291;-55
2021/11/20 03:03:21;;;;;;;43.55;15.10;;;;;;;;;;5001279;28;20460;-56
2021/11/20 03:05:46;;;;;;;45.20;15.32;;;;;;;;;;5004586;28;20053;-55
2021/11/20 03:08:12;;;;;;;45.17;16.42;;;;;;;;;;5004131;28;20040;-57
2021/11/20 03:10:37;;;;;;;46.75;15.45;;;;;;;;;;5003026;28;20046;-54
2021/11/20 03:13:03;;;;;;;46.65;16.27;;;;;;;;;;4999542;28;20113;-56
2021/11/20 03:15:29;;;;;;;40.90;15.20;;;;;;;;;;4996826;28;20029;-56
2021/11/20 03:17:55;;;;;;;42.50;15.50;;;;;;;;;;5007170;28;20456;-55
2021/11/20 03:20:21;;;;;;;48.47;15.63;;;;;;;;;;4999430;28;20050;-54
2021/11/20 03:22:49;;;;;;;46.92;16.98;;;;;;;;;;4999226;28;20052;-55
2021/11/20 03:25:15;;;;;;;45.17;17.13;;;;;;;;;;5005103;28;20411;-55
2021/11/20 03:27:41;;;;;;;52.33;15.90;;;;;;;;;;5000156;28;20025;-54
2021/11/20 03:30:07;;;;;;;54.83;17.95;;;;;;;;;;5003857;28;20040;-54
2021/11/20 03:32:33;;;;;;;53.15;17.35;;;;;;;;;;5002015;28;20037;-59
2021/11/20 03:34:58;;;;;;;60.20;19.77;;;;;;;;;;5002986;28;20029;-58
2021/11/20 03:37:24;;;;;;;53.22;18.63;;;;;;;;;;5002360;28;20087;-56
2021/11/20 03:39:51;;;;;;;54.30;18.63;;;;;;;;;;5000799;28;20049;-56
2021/11/20 03:42:18;;;;;;;47.80;16.83;;;;;;;;;;5003613;28;20029;-56
2021/11/20 03:44:43;;;;;;;46.85;16.83;;;;;;;;;;5006568;28;20037;-56
2021/11/20 03:47:09;;;;;;;46.80;16.10;;;;;;;;;;5001152;28;20045;-55
2021/11/20 03:49:34;;;;;;;42.47;14.90;;;;;;;;;;5004166;28;20392;-55
2021/11/20 03:52:00;;;;;;;50.40;15.82;;;;;;;;;;5006750;28;20534;-55
2021/11/20 03:54:26;;;;;;;43.55;14.55;;;;;;;;;;5000592;28;20104;-56
2021/11/20 03:56:52;;;;;;;43.15;14.95;;;;;;;;;;5002015;28;20040;-54
2021/11/20 03:59:18;;;;;;;52.25;16.25;;;;;;;;;;5002796;28;20429;-54
2021/11/20 04:01:45;;;;;;;50.63;16.73;;;;;;;;;;5003000;28;20045;-56
2021/11/20 04:04:10;;;;;;;51.67;15.95;;;;;;;;;;5003078;28;20428;-56
2021/11/20 04:06:36;;;;;;;43.85;14.20;;;;;;;;;;4997428;28;20052;-55
2021/11/20 04:09:02;;;;;;;48.67;15.18;;;;;;;;;;5004254;28;20026;-56
2021/11/20 04:11:32;;;;;;;52.47;16.83;;;;;;;;;;5008199;28;20017;-54
2021/11/20 04:13:58;;;;;;;52.65;16.85;;;;;;;;;;5004185;28;20033;-55
2021/11/20 04:16:25;;;;;;;54.70;16.88;;;;;;;;;;4998960;28;20074;-53
2021/11/20 04:18:51;;;;;;;52.08;16.60;;;;;;;;;;4999990;28;20463;-55
2021/11/20 04:21:17;;;;;;;49.90;16.38;;;;;;;;;;4998505;28;20026;-56
2021/11/20 04:23:45;;;;;;;57.72;19.67;;;;;;;;;;4999615;28;20037;-55
2021/11/20 04:26:13;;;;;;;55.83;18.15;;;;;;;;;;5000770;28;20036;-57
2021/11/20 04:28:38;;;;;;;56.42;18.73;;;;;;;;;;4998470;28;20045;-54
2021/11/20 04:31:04;;;;;;;52.60;16.38;;;;;;;;;;5004849;28;20034;-54
2021/11/20 04:33:29;;;;;;;54.55;17.00;;;;;;;;;;5004535;28;20108;-54
2021/11/20 04:35:55;;;;;;;53.72;16.58;;;;;;;;;;5003196;28;20038;-55
2021/11/20 04:38:20;;;;;;;50.72;16.05;;;;;;;;;;5000178;28;20476;-55
2021/11/20 04:40:46;;;;;;;55.95;16.55;;;;;;;;;;5004216;28;20108;-56
2021/11/20 04:43:12;;;;;;;57.22;17.25;;;;;;;;;;5002657;28;20365;-56
2021/11/20 04:45:38;;;;;;;50.50;15.65;;;;;;;;;;5006323;28;20112;-54
2021/11/20 04:48:06;;;;;;;52.55;16.95;;;;;;;;;;5002632;28;20034;-55
2021/11/20 04:50:33;;;;;;;51.42;15.20;;;;;;;;;;5005933;28;20510;-55
2021/11/20 04:52:59;;;;;;;49.92;16.15;;;;;;;;;;5007917;28;20026;-54
2021/11/20 04:55:25;;;;;;;52.10;16.55;;;;;;;;;;5007182;28;20029;-55
2021/11/20 04:57:51;;;;;;;50.72;15.20;;;;;;;;;;5004129;28;20377;-54
2021/11/20 05:00:24;;;;;;;55.83;16.67;;;;;;;;;;5005749;28;20033;-55
2021/11/20 05:02:50;;;;;;;50.42;15.48;;;;;;;;;;5009352;28;20026;-55
2021/11/20 05:05:16;;;;;;;46.80;14.82;;;;;;;;;;5006335;28;20566;-55
2021/11/20 05:07:42;;;;;;;41.63;13.55;;;;;;;;;;5003022;28;20030;-55
2021/11/20 05:10:11;;;;;;;47.63;14.98;;;;;;;;;;5005435;28;20049;-55
2021/11/20 05:12:37;;;;;;;45.47;14.50;;;;;;;;;;5001833;28;20052;-58
2021/11/20 05:15:05;;;;;;;47.35;14.65;;;;;;;;;;5006118;28;20033;-56
2021/11/20 05:17:31;;;;;;;49.67;15.18;;;;;;;;;;5001268;28;20033;-55
2021/11/20 05:19:56;;;;;;;45.38;14.32;;;;;;;;;;5003428;28;20038;-55
2021/11/20 05:22:22;;;;;;;43.15;15.32;;;;;;;;;;4998813;28;20034;-55
2021/11/20 05:24:47;;;;;;;43.00;14.82;;;;;;;;;;5005780;28;20033;-53
2021/11/20 05:27:13;;;;;;;43.22;14.98;;;;;;;;;;5002348;28;20237;-55
2021/11/20 05:32:05;;;;;;;41.80;15.80;;;;;;;;;;5005355;28;20021;-56
2021/11/20 05:34:30;;;;;;;43.33;14.50;;;;;;;;;;5005303;28;20271;-56
2021/11/20 05:36:56;;;;;;;42.00;13.95;;;;;;;;;;5002085;28;20112;-55
2021/11/20 05:39:21;;;;;;;40.65;14.52;;;;;;;;;;5004997;28;20461;-54
2021/11/20 05:41:48;;;;;;;46.90;14.73;;;;;;;;;;5007326;28;20511;-55
2021/11/20 05:44:14;;;;;;;50.33;15.50;;;;;;;;;;5005892;28;20500;-55
2021/11/20 05:46:40;;;;;;;47.92;15.57;;;;;;;;;;5001307;28;20033;-54
2021/11/20 05:49:07;;;;;;;47.05;15.25;;;;;;;;;;5005085;28;20028;-54
2021/11/20 05:51:33;;;;;;;39.88;13.82;;;;;;;;;;5008858;28;20079;-54
2021/11/20 05:53:59;;;;;;;47.00;14.82;;;;;;;;;;5004824;28;20447;-55
2021/11/20 05:56:25;;;;;;;46.70;15.23;;;;;;;;;;5001944;28;20030;-54
2021/11/20 05:58:51;;;;;;;44.78;14.05;;;;;;;;;;5001056;28;20392;-54
2021/11/20 06:01:16;;;;;;;47.70;15.52;;;;;;;;;;5004020;28;20032;-56
2021/11/20 06:03:42;;;;;;;44.88;15.00;;;;;;;;;;5000913;28;20045;-54
2021/11/20 06:06:07;;;;;;;44.40;16.23;;;;;;;;;;5004608;28;20578;-55
2021/11/20 06:08:33;;;;;;;47.20;16.13;;;;;;;;;;5000604;28;20040;-56
2021/11/20 06:11:02;;;;;;;48.78;16.38;;;;;;;;;;5006709;28;21340;-57
2021/11/20 06:13:28;;;;;;;44.20;15.00;;;;;;;;;;5006461;28;20070;-57
2021/11/20 06:15:55;;;;;;;42.15;15.07;;;;;;;;;;5003779;28;20056;-57
2021/11/20 06:18:21;;;;;;;40.67;14.77;;;;;;;;;;5000231;28;20044;-56
2021/11/20 06:20:48;;;;;;;47.90;17.45;;;;;;;;;;5002104;28;20480;-56
2021/11/20 06:23:15;;;;;;;47.38;15.60;;;;;;;;;;5003708;28;20439;-57
2021/11/20 06:25:40;;;;;;;44.55;15.90;;;;;;;;;;5007366;28;20045;-56
2021/11/20 06:28:06;;;;;;;43.55;15.55;;;;;;;;;;5002484;28;20491;-57
2021/11/20 06:30:33;;;;;;;44.13;15.77;;;;;;;;;;5002606;28;20385;-57
2021/11/20 06:33:00;;;;;;;46.47;16.10;;;;;;;;;;4999614;28;20047;-56
2021/11/20 06:35:28;;;;;;;42.05;14.65;;;;;;;;;;5005876;28;20040;-56
2021/11/20 06:37:54;;;;;;;41.63;15.10;;;;;;;;;;4999245;28;20038;-56
2021/11/20 06:40:47;;;;;;;41.38;14.88;;;;;;;;;;5004369;28;20129;-57
2021/11/20 06:43:15;;;;;;;48.20;16.40;;;;;;;;;;5004339;28;20523;-59
2021/11/20 06:45:47;;;;;;;43.47;15.57;;;;;;;;;;5004283;28;20474;-58
2021/11/20 06:48:14;;;;;;;42.50;14.98;;;;;;;;;;5001900;28;20429;-56
2021/11/20 06:50:41;;;;;;;41.40;15.00;;;;;;;;;;5004443;28;20018;-58
2021/11/20 06:53:09;;;;;;;42.53;15.50;;;;;;;;;;5002756;28;20037;-57
2021/11/20 06:55:36;;;;;;;41.13;14.85;;;;;;;;;;5005362;28;20163;-57
2021/11/20 07:00:57;;;;;;;46.38;18.05;;;;;;;;;;4988087;28;20033;-57
2021/11/20 07:03:32;;;;;;;51.03;20.90;;;;;;;;;;5002407;28;20033;-56
2021/11/20 07:06:06;;;;;;;42.55;16.45;;;;;;;;;;5001462;28;20092;-57
2021/11/20 07:08:32;;;;;;;38.60;16.10;;;;;;;;;;5003510;28;20037;-56
2021/11/20 07:10:59;;;;;;;41.35;15.10;;;;;;;;;;5004770;28;20365;-57
2021/11/20 07:13:25;;;;;;;34.53;13.55;;;;;;;;;;4997243;28;20041;-57
2021/11/20 07:15:52;;;;;;;28.38;10.10;;;;;;;;;;4998837;28;20030;-57
2021/11/20 07:18:18;;;;;;;11.57;4.93;;;;;;;;;;4996188;28;20395;-56
2021/11/20 07:20:45;;;;;;;6.10;2.90;;;;;;;;;;4999402;28;20037;-56
2021/11/20 07:23:11;;;;;;;4.82;2.20;;;;;;;;;;4999861;28;20079;-57
2021/11/20 07:25:38;;;;;;;3.40;1.67;;;;;;;;;;5000907;28;20488;-56
2021/11/20 07:28:04;;;;;;;1.35;0.95;;;;;;;;;;5003020;28;20156;-56
2021/11/20 07:30:32;;;;;;;1.48;1.05;;;;;;;;;;5003609;28;20025;-56
2021/11/20 07:32:58;;;;;;;1.90;0.90;;;;;;;;;;5000514;28;20447;-55
2021/11/20 07:35:23;;;;;;;1.75;0.88;;;;;;;;;;5006020;28;20030;-56
2021/11/20 07:37:49;;;;;;;2.22;1.10;;;;;;;;;;5008080;28;20121;-55
2021/11/20 07:40:14;;;;;;;2.45;1.23;;;;;;;;;;5004633;28;20144;-55
2021/11/20 07:42:40;;;;;;;2.40;1.50;;;;;;;;;;5000340;28;20083;-55
2021/11/20 07:45:05;;;;;;;2.17;1.20;;;;;;;;;;5005056;28;20041;-56
2021/11/20 07:47:31;;;;;;;2.95;1.45;;;;;;;;;;5002449;28;20030;-57
2021/11/20 07:49:57;;;;;;;4.32;1.80;;;;;;;;;;5003031;28;20037;-56
2021/11/20 07:52:22;;;;;;;7.90;3.45;;;;;;;;;;5003939;28;20029;-57
2021/11/20 07:54:48;;;;;;;8.52;3.35;;;;;;;;;;5002045;28;20452;-57
2021/11/20 07:57:14;;;;;;;8.63;3.83;;;;;;;;;;5003500;28;20492;-56
2021/11/20 07:59:39;;;;;;;11.25;4.35;;;;;;;;;;5004796;28;20248;-56
2021/11/20 08:02:07;;;;;;;9.95;3.65;;;;;;;;;;5000339;28;20172;-56
2021/11/20 08:04:36;;;;;;;3.10;2.00;;;;;;;;;;5000065;28;20034;-55
2021/11/20 08:07:03;;;;;;;3.55;1.83;;;;;;;;;;5004149;28;20034;-56
2021/11/20 08:09:29;;;;;;;3.20;1.63;;;;;;;;;;5003034;28;20026;-57
2021/11/20 08:11:54;;;;;;;4.57;2.30;;;;;;;;;;5002807;28;20037;-56
2021/11/20 08:14:21;;;;;;;3.95;2.03;;;;;;;;;;5003730;28;20378;-56
2021/11/20 08:16:48;;;;;;;3.85;2.10;;;;;;;;;;5002790;28;20549;-56
2021/11/20 08:19:13;;;;;;;4.78;2.28;;;;;;;;;;5001122;28;20069;-55
2021/11/20 08:21:39;;;;;;;3.80;1.90;;;;;;;;;;5002841;28;20559;-56
2021/11/20 08:24:06;;;;;;;6.15;2.67;;;;;;;;;;5002954;28;20038;-56
2021/11/20 08:26:37;;;;;;;5.85;2.85;;;;;;;;;;5000691;28;20042;-55
2021/11/20 08:29:09;;;;;;;5.65;2.40;;;;;;;;;;5005907;28;20087;-56
2021/11/20 08:31:39;;;;;;;7.18;3.35;;;;;;;;;;5003353;28;20061;-56
2021/11/20 08:34:05;;;;;;;8.32;3.65;;;;;;;;;;5002816;28;20042;-56
2021/11/20 08:36:31;;;;;;;7.18;3.10;;;;;;;;;;5005196;28;20036;-57
2021/11/20 08:38:56;;;;;;;8.68;3.83;;;;;;;;;;5000585;28;20033;-56
2021/11/20 08:41:22;;;;;;;12.40;6.15;;;;;;;;;;5000275;28;20026;-56
2021/11/20 08:43:48;;;;;;;15.15;6.57;;;;;;;;;;5002582;28;20423;-57
2021/11/20 08:46:13;;;;;;;17.30;8.43;;;;;;;;;;5002351;28;20554;-58
2021/11/20 08:48:39;;;;;;;96.57;50.65;;;;;;;;;;5001622;28;20030;-57
2021/11/20 08:51:11;;;;;;;158.85;71.53;;;;;;;;;;5002932;28;20388;-57
2021/11/20 08:53:37;;;;;;;183.05;84.50;;;;;;;;;;5000934;28;20037;-57
2021/11/20 08:56:03;;;;;;;176.88;81.55;;;;;;;;;;5003073;28;20044;-57
2021/11/20 08:58:31;;;;;;;41.72;18.20;;;;;;;;;;5003928;28;20079;-57
2021/11/20 09:01:08;;;;;;;101.03;41.67;;;;;;;;;;5001351;28;20033;-56
2021/11/20 09:03:43;;;;;;;171.07;72.38;;;;;;;;;;5001702;28;20030;-57
2021/11/20 09:06:17;;;;;;;165.13;70.95;;;;;;;;;;4996741;28;20037;-56
2021/11/20 09:08:49;;;;;;;45.83;23.38;;;;;;;;;;4997146;28;20026;-57
2021/11/20 09:11:37;;;;;;;66.72;28.33;;;;;;;;;;5001489;28;20026;-57
2021/11/20 09:14:19;;;;;;;56.00;22.67;;;;;;;;;;4999033;28;20519;-56
2021/11/20 09:16:44;;;;;;;44.05;19.05;;;;;;;;;;5000349;28;20527;-57
2021/11/20 09:19:11;;;;;;;59.05;28.50;;;;;;;;;;4997330;28;20100;-57
2021/11/20 09:21:38;;;;;;;45.28;20.55;;;;;;;;;;5005342;28;20495;-57
2021/11/20 09:24:04;;;;;;;49.80;22.45;;;;;;;;;;5005229;28;20463;-56
2021/11/20 09:26:32;;;;;;;41.95;18.20;;;;;;;;;;4997424;28;20118;-56
2021/11/20 09:29:00;;;;;;;25.02;9.93;;;;;;;;;;5001779;28;20101;-57
2021/11/20 09:31:28;;;;;;;17.40;7.63;;;;;;;;;;5001444;28;20484;-57
2021/11/20 09:33:56;;;;;;;21.05;8.98;;;;;;;;;;5005562;28;20073;-57
2021/11/20 09:36:23;;;;;;;27.50;14.07;;;;;;;;;;5005452;28;20395;-56
2021/11/20 09:38:49;;;;;;;25.42;12.77;;;;;;;;;;5004808;28;20030;-56
2021/11/20 09:41:25;;;;;;;12.10;6.30;;;;;;;;;;5002041;28;20481;-56
2021/11/20 09:43:59;;;;;;;21.77;13.52;;;;;;;;;;5002668;28;20030;-54
2021/11/20 09:46:29;;;;;;;14.88;8.82;;;;;;;;;;5000661;28;20036;-52
2021/11/20 09:49:18;;;;;;;24.65;14.73;;;;;;;;;;5002052;28;20040;-56
2021/11/20 09:51:47;;;;;;;12.02;6.88;;;;;;;;;;5001466;28;20441;-57
2021/11/20 09:54:25;;;;;;;10.45;4.97;;;;;;;;;;5005415;28;20116;-57
2021/11/20 09:56:55;;;;;;;9.00;4.63;;;;;;;;;;5005357;28;20522;-56
2021/11/20 09:59:38;;;;;;;16.25;7.60;;;;;;;;;;5003761;28;20083;-56
2021/11/20 10:02:15;;;;;;;24.52;15.40;;;;;;;;;;5003093;28;20531;-56
2021/11/20 10:05:02;;;;;;;20.17;8.82;;;;;;;;;;5003930;28;20021;-56
2021/11/20 10:07:28;;;;;;;9.10;4.78;;;;;;;;;;5005298;28;20124;-55
2021/11/20 10:09:59;;;;;;;9.70;6.10;;;;;;;;;;5002053;28;20161;-56
2021/11/20 10:13:03;;;;;;;9.70;4.90;;;;;;;;;;5002107;28;20053;-56
2021/11/20 10:15:32;;;;;;;11.38;6.28;;;;;;;;;;5007115;28;20052;-56
2021/11/20 10:18:12;;;;;;;11.47;5.40;;;;;;;;;;5005936;28;20026;-55
2021/11/20 10:20:43;;;;;;;10.55;5.55;;;;;;;;;;5005428;28;20022;-55
2021/11/20 10:23:36;;;;;;;13.45;6.82;;;;;;;;;;5006115;28;20042;-55
2021/11/20 10:26:33;;;;;;;17.15;9.60;;;;;;;;;;5005608;28;20056;-55
2021/11/20 10:28:58;;;;;;;9.13;5.28;;;;;;;;;;5003191;28;20060;-57
2021/11/20 10:31:29;;;;;;;15.07;7.93;;;;;;;;;;5004195;28;20022;-55
2021/11/20 10:34:07;;;;;;;17.48;9.30;;;;;;;;;;5000446;28;20061;-56
2021/11/20 10:36:38;;;;;;;9.73;5.25;;;;;;;;;;5005084;28;20030;-56
2021/11/20 10:39:15;;;;;;;17.23;8.93;;;;;;;;;;5003967;28;20037;-56
2021/11/20 10:41:58;;;;;;;10.75;5.15;;;;;;;;;;5005251;28;20157;-55
2021/11/20 10:44:29;;;;;;;8.60;4.35;;;;;;;;;;5006161;28;20041;-56
2021/11/20 10:47:21;;;;;;;7.05;4.25;;;;;;;;;;5001781;28;20041;-55
2021/11/20 10:50:05;;;;;;;8.43;4.45;;;;;;;;;;4999527;28;20048;-56
2021/11/20 10:52:58;;;;;;;8.23;5.00;;;;;;;;;;4999236;28;20030;-56
2021/11/20 10:55:40;;;;;;;7.60;3.92;;;;;;;;;;5003366;28;20030;-55
2021/11/20 10:58:15;;;;;;;11.73;4.57;;;;;;;;;;5002216;28;20018;-55
2021/11/20 11:00:59;;;;;;;11.38;6.50;;;;;;;;;;5003518;28;20101;-56
2021/11/20 11:03:57;;;;;;;7.30;4.90;;;;;;;;;;5001474;28;20049;-56
2021/11/20 11:06:55;;;;;;;8.00;4.75;;;;;;;;;;4994549;28;20112;-55
2021/11/20 11:09:34;;;;;;;9.73;5.82;;;;;;;;;;5000390;28;20111;-56
2021/11/20 11:12:09;;;;;;;8.37;4.70;;;;;;;;;;4999759;28;20056;-56
2021/11/20 11:14:49;;;;;;;13.82;8.27;;;;;;;;;;5005273;28;20391;-56
2021/11/20 11:17:36;;;;;;;13.80;7.20;;;;;;;;;;5002513;28;20025;-56
2021/11/20 11:20:26;;;;;;;9.02;5.45;;;;;;;;;;5003224;28;20053;-57
2021/11/20 11:22:58;;;;;;;13.88;6.18;;;;;;;;;;4999653;28;20046;-55
2021/11/20 11:25:29;;;;;;;12.18;5.28;;;;;;;;;;4994851;28;20445;-57
2021/11/20 11:28:13;;;;;;;12.48;5.32;;;;;;;;;;5002798;28;20391;-57
2021/11/20 11:31:09;;;;;;;13.25;5.80;;;;;;;;;;5001878;28;20032;-57
2021/11/20 11:33:40;;;;;;;10.85;5.65;;;;;;;;;;4999914;28;20021;-56
2021/11/20 11:36:20;;;;;;;10.32;5.60;;;;;;;;;;4998710;28;20032;-55
2021/11/20 11:39:09;;;;;;;10.75;5.43;;;;;;;;;;5001563;28;20034;-56
2021/11/20 11:41:41;;;;;;;12.23;6.00;;;;;;;;;;5003515;28;20029;-56
2021/11/20 11:44:25;;;;;;;13.52;6.53;;;;;;;;;;5003863;28;20125;-56
2021/11/20 11:46:59;;;;;;;13.90;6.13;;;;;;;;;;5003877;28;20503;-59
2021/11/20 11:49:46;;;;;;;13.52;6.80;;;;;;;;;;5002505;28;20045;-57
2021/11/20 11:52:44;;;;;;;12.57;7.03;;;;;;;;;;5003986;28;20024;-59
2021/11/20 11:55:34;;;;;;;12.75;7.07;;;;;;;;;;5002495;28;20030;-59
2021/11/20 11:58:25;;;;;;;11.52;5.82;;;;;;;;;;5000990;28;20075;-57
2021/11/20 12:01:03;;;;;;;11.65;6.03;;;;;;;;;;5003633;28;20049;-58
2021/11/20 12:03:39;;;;;;;12.15;5.95;;;;;;;;;;5003585;28;20040;-56
2021/11/20 12:06:28;;;;;;;11.90;6.25;;;;;;;;;;5003497;28;20455;-57
2021/11/20 12:09:03;;;;;;;13.27;6.40;;;;;;;;;;4997394;28;20109;-58
2021/11/20 12:11:28;;;;;;;13.05;6.85;;;;;;;;;;4999166;28;20065;-58
2021/11/20 12:14:08;;;;;;;17.05;7.63;;;;;;;;;;4996628;28;20053;-58
2021/11/20 12:16:48;;;;;;;12.48;6.90;;;;;;;;;;5000528;28;20034;-58
2021/11/20 12:19:27;;;;;;;10.10;6.15;;;;;;;;;;5002824;28;20033;-58
2021/11/20 12:22:01;;;;;;;10.63;5.90;;;;;;;;;;4997499;28;20121;-59
2021/11/20 12:24:42;;;;;;;11.45;6.35;;;;;;;;;;5001494;28;20428;-59
2021/11/20 12:27:26;;;;;;;11.85;6.57;;;;;;;;;;4998314;28;20484;-60
2021/11/20 12:30:29;;;;;;;12.50;6.75;;;;;;;;;;4998866;28;20080;-59
2021/11/20 12:33:21;;;;;;;15.23;7.60;;;;;;;;;;4997488;28;20038;-59
2021/11/20 12:35:49;;;;;;;33.28;13.95;;;;;;;;;;4998716;28;20045;-59
2021/11/20 12:38:48;;;;;;;23.65;11.68;;;;;;;;;;5000948;28;20101;-59
2021/11/20 12:41:32;;;;;;;21.35;9.85;;;;;;;;;;5001074;28;20095;-58
2021/11/20 12:44:06;;;;;;;26.58;12.18;;;;;;;;;;4999000;28;20054;-58
2021/11/20 12:46:57;;;;;;;26.83;10.52;;;;;;;;;;4998932;28;20029;-58
2021/11/20 12:49:25;;;;;;;30.17;14.43;;;;;;;;;;4997570;28;20303;-58
2021/11/20 12:52:15;;;;;;;24.10;11.02;;;;;;;;;;5000166;28;20025;-59
2021/11/20 12:54:43;;;;;;;20.67;10.05;;;;;;;;;;5005288;28;20373;-58
2021/11/20 12:57:21;;;;;;;19.80;9.23;;;;;;;;;;5000749;28;20026;-59
2021/11/20 12:59:53;;;;;;;19.92;9.65;;;;;;;;;;5001662;28;20129;-58
2021/11/20 13:02:53;;;;;;;29.83;14.35;;;;;;;;;;5001781;28;20388;-58
2021/11/20 13:05:22;;;;;;;20.35;9.77;;;;;;;;;;5004887;28;20433;-57
2021/11/20 13:07:52;;;;;;;21.52;10.73;;;;;;;;;;5002584;28;20504;-57
2021/11/20 13:10:23;;;;;;;20.75;10.00;;;;;;;;;;5003037;28;20025;-58
2021/11/20 13:13:01;;;;;;;27.60;12.32;;;;;;;;;;5005134;28;20052;-58
2021/11/20 13:16:03;;;;;;;28.25;11.52;;;;;;;;;;5001129;28;20092;-59
2021/11/20 13:18:33;;;;;;;25.65;11.20;;;;;;;;;;5005546;28;20026;-58
2021/11/20 13:21:19;;;;;;;;;;;;;;;;;;5009306;28;20037;-59
2021/11/20 13:23:45;;;;;;;23.50;10.48;;;;;;;;;;5002570;28;19928;-59
2021/11/20 13:26:10;;;;;;;23.95;11.30;;;;;;;;;;5003318;28;20018;-58
2021/11/20 13:28:40;;;;;;;24.80;13.20;;;;;;;;;;5004595;28;20396;-58
2021/11/20 13:31:08;;;;;;;26.10;12.27;;;;;;;;;;5006249;28;20018;-58
2021/11/20 13:33:34;;;;;;;26.88;13.00;;;;;;;;;;5008520;28;20084;-58
2021/11/20 13:36:06;;;;;;;27.23;12.95;;;;;;;;;;5006737;28;20054;-59
2021/11/20 13:38:32;;;;;;;28.52;13.02;;;;;;;;;;5002255;28;20021;-59
2021/11/20 13:40:59;;;;;;;31.25;12.90;;;;;;;;;;5001006;28;20083;-59
2021/11/20 13:43:27;;;;;;;26.48;12.32;;;;;;;;;;5006596;28;20025;-59
2021/11/20 13:46:01;;;;;;;24.65;12.10;;;;;;;;;;5005554;28;20117;-59
2021/11/20 13:48:30;;;;;;;25.15;11.75;;;;;;;;;;5000747;28;20080;-58
2021/11/20 13:50:57;;;;;;;26.77;13.10;;;;;;;;;;4999983;28;20029;-60
2021/11/20 13:53:32;;;;;;;30.73;13.45;;;;;;;;;;5002366;28;20041;-60
2021/11/20 13:55:58;;;;;;;23.42;11.38;;;;;;;;;;5006827;28;20049;-58
2021/11/20 13:58:36;;;;;;;20.13;10.25;;;;;;;;;;5000968;28;20511;-57
2021/11/20 14:01:05;;;;;;;23.67;10.55;;;;;;;;;;5002523;28;20041;-57
2021/11/20 14:03:31;;;;;;;;;;;;;;;;;;5001287;28;20121;-59
2021/11/20 14:05:57;;;;;;;20.50;9.07;;;;;;;;;;5004138;28;20004;-60
2021/11/20 14:08:26;;;;;;;20.52;11.07;;;;;;;;;;5001753;28;20045;-58
2021/11/20 14:10:58;;;;;;;17.58;8.75;;;;;;;;;;5002513;28;20388;-58
2021/11/20 14:13:33;;;;;;;22.73;7.03;;;;;;;;;;5005106;28;20025;-58
2021/11/20 14:16:00;;;;;;;17.63;8.48;;;;;;;;;;5003506;28;20091;-60
2021/11/20 14:18:27;;;;;;;25.20;8.93;;;;;;;;;;5002676;28;20053;-58
2021/11/20 14:21:01;;;;;;;22.27;8.30;;;;;;;;;;4997611;28;20644;-58
2021/11/20 14:23:28;;;;;;;16.50;9.60;;;;;;;;;;5000037;28;20112;-59
2021/11/20 14:25:59;;;;;;;19.20;9.05;;;;;;;;;;5005919;28;20037;-58
2021/11/20 14:28:37;;;;;;;17.23;9.82;;;;;;;;;;5002725;28;20328;-59
2021/11/20 14:31:12;;;;;;;16.92;8.75;;;;;;;;;;5002761;28;20444;-59
2021/11/20 14:33:50;;;;;;;14.20;9.02;;;;;;;;;;4999620;28;20105;-59
2021/11/20 14:36:16;;;;;;;16.63;9.10;;;;;;;;;;5002805;28;20038;-58
2021/11/20 14:38:51;;;;;;;17.02;9.85;;;;;;;;;;5004818;28;20124;-59
2021/11/20 14:41:17;;;;;;;15.30;9.07;;;;;;;;;;5003946;28;20022;-58
2021/11/20 14:43:43;;;;;;;13.88;7.97;;;;;;;;;;5000686;28;20030;-59
2021/11/20 14:46:18;;;;;;;14.32;8.27;;;;;;;;;;5001844;28;20392;-58
2021/11/20 14:48:44;;;;;;;13.27;7.65;;;;;;;;;;5002455;28;20037;-58
2021/11/20 14:51:10;;;;;;;14.57;8.82;;;;;;;;;;5005797;28;20022;-59
2021/11/20 14:53:39;;;;;;;17.48;9.32;;;;;;;;;;5002197;28;20040;-59
2021/11/20 14:56:13;;;;;;;15.07;8.90;;;;;;;;;;5003428;28;20508;-58